sensor_id;sensor_type;location;lat;lon;timestamp;pressure;altitude;pressure_sealevel;temperature;humidity
20013;BME280;10167;42.852;23.042;2022-08-11T00:06:07;95056.06;;;16.34;100.00
20013;BME280;10167;42.852;23.042;2022-08-11T00:08:36;95054.72;;;16.27;100.00
20013;BME280;10167;42.852;23.042;2022-08-11T00:11:06;95064.38;;;16.23;100.00
20013;BME280;10167;42.852;23.042;2022-08-11T00:13:36;95063.31;;;16.14;100.00
20013;BME280;10167;42.852;23.042;2022-08-11T00:16:11;95065.16;;;16.08;100.00
20013;BME280;10167;42.852;23.042;2022-08-11T00:18:41;95065.69;;;16.10;100.00
20013;BME280;10167;42.852;23.042;2022-08-11T00:21:11;95061.97;;;16.11;100.00
20013;BME280;10167;42.852;23.042;2022-08-11T00:28:46;95063.00;;;16.15;100.00
20013;BME280;10167;42.852;23.042;2022-08-11T00:31:22;95067.53;;;16.15;100.00
20013;BME280;10167;42.852;23.042;2022-08-11T00:33:51;95068.38;;;16.20;100.00
20013;BME280;10167;42.852;23.042;2022-08-11T00:36:22;95054.47;;;16.18;100.00
20013;BME280;10167;42.852;23.042;2022-08-11T00:38:53;95056.59;;;16.16;100.00
20013;BME280;10167;42.852;23.042;2022-08-11T00:41:32;95049.38;;;16.17;100.00
20013;BME280;10167;42.852;23.042;2022-08-11T00:44:25;95049.38;;;16.17;100.00
20013;BME280;10167;42.852;23.042;2022-08-11T00:52:09;95053.94;;;15.96;100.00
20013;BME280;10167;42.852;23.042;2022-08-11T01:00:48;95044.56;;;15.83;100.00
20013;BME280;10167;42.852;23.042;2022-08-11T01:03:36;95045.91;;;15.76;100.00
20013;BME280;10167;42.852;23.042;2022-08-11T01:20:49;95038.88;;;15.49;100.00
20013;BME280;10167;42.852;23.042;2022-08-11T01:24:00;95046.88;;;15.44;100.00
20013;BME280;10167;42.852;23.042;2022-08-11T01:41:29;95035.88;;;15.31;100.00
20013;BME280;10167;42.852;23.042;2022-08-11T01:44:16;95030.28;;;15.32;100.00
20013;BME280;10167;42.852;23.042;2022-08-11T01:47:23;95034.53;;;15.28;100.00
20013;BME280;10167;42.852;23.042;2022-08-11T01:50:34;95026.78;;;15.26;100.00
20013;BME280;10167;42.852;23.042;2022-08-11T01:53:13;95024.69;;;15.23;100.00
20013;BME280;10167;42.852;23.042;2022-08-11T02:00:51;95027.06;;;15.25;100.00
20013;BME280;10167;42.852;23.042;2022-08-11T02:03:27;95038.78;;;15.19;100.00
20013;BME280;10167;42.852;23.042;2022-08-11T02:06:11;95030.22;;;15.17;100.00
20013;BME280;10167;42.852;23.042;2022-08-11T02:09:03;95036.63;;;15.16;100.00
20013;BME280;10167;42.852;23.042;2022-08-11T02:11:37;95027.03;;;15.15;100.00
20013;BME280;10167;42.852;23.042;2022-08-11T02:14:16;95034.75;;;15.16;100.00
20013;BME280;10167;42.852;23.042;2022-08-11T02:19:52;95030.22;;;15.17;100.00
20013;BME280;10167;42.852;23.042;2022-08-11T02:22:48;95049.41;;;15.09;100.00
20013;BME280;10167;42.852;23.042;2022-08-11T02:25:39;95041.13;;;15.00;100.00
20013;BME280;10167;42.852;23.042;2022-08-11T02:28:19;95040.28;;;14.95;100.00
20013;BME280;10167;42.852;23.042;2022-08-11T02:31:01;95036.00;;;14.88;100.00
20013;BME280;10167;42.852;23.042;2022-08-11T02:34:13;95034.34;;;14.82;100.00
20013;BME280;10167;42.852;23.042;2022-08-11T02:41:50;95030.38;;;14.85;100.00
20013;BME280;10167;42.852;23.042;2022-08-11T02:45:11;95026.06;;;14.74;100.00
20013;BME280;10167;42.852;23.042;2022-08-11T02:47:50;95027.38;;;14.66;100.00
20013;BME280;10167;42.852;23.042;2022-08-11T02:50:38;95035.34;;;14.66;100.00
20013;BME280;10167;42.852;23.042;2022-08-11T02:53:12;95034.00;;;14.69;100.00
20013;BME280;10167;42.852;23.042;2022-08-11T02:55:52;95040.69;;;14.66;100.00
20013;BME280;10167;42.852;23.042;2022-08-11T03:03:32;95036.44;;;14.70;100.00
20013;BME280;10167;42.852;23.042;2022-08-11T03:06:08;95038.31;;;14.75;100.00
20013;BME280;10167;42.852;23.042;2022-08-11T03:08:46;95041.00;;;14.75;100.00
20013;BME280;10167;42.852;23.042;2022-08-11T03:11:37;95040.19;;;14.79;100.00
20013;BME280;10167;42.852;23.042;2022-08-11T03:14:28;95038.09;;;14.81;100.00
20013;BME280;10167;42.852;23.042;2022-08-11T03:17:27;95042.13;;;14.89;100.00
20013;BME280;10167;42.852;23.042;2022-08-11T03:25:00;95044.56;;;14.96;100.00
20013;BME280;10167;42.852;23.042;2022-08-11T03:27:38;95044.56;;;14.96;100.00
20013;BME280;10167;42.852;23.042;2022-08-11T03:30:13;95039.22;;;14.96;100.00
20013;BME280;10167;42.852;23.042;2022-08-11T03:32:53;95047.78;;;14.98;100.00
20013;BME280;10167;42.852;23.042;2022-08-11T03:35:48;95040.28;;;14.95;100.00
20013;BME280;10167;42.852;23.042;2022-08-11T03:38:22;95038.13;;;14.92;100.00
20013;BME280;10167;42.852;23.042;2022-08-11T03:41:08;95031.72;;;14.93;100.00
20013;BME280;10167;42.852;23.042;2022-08-11T03:47:05;95043.75;;;14.95;100.00
20013;BME280;10167;42.852;23.042;2022-08-11T03:49:43;95032.03;;;15.01;100.00
20013;BME280;10167;42.852;23.042;2022-08-11T03:52:18;95036.84;;;15.04;100.00
20013;BME280;10167;42.852;23.042;2022-08-11T03:54:54;95029.69;;;15.15;100.00
20013;BME280;10167;42.852;23.042;2022-08-11T04:00:48;95036.66;;;15.21;100.00
20013;BME280;10167;42.852;23.042;2022-08-11T04:08:01;95039.94;;;15.48;100.00
20013;BME280;10167;42.852;23.042;2022-08-11T04:14:22;95045.63;;;15.82;100.00
20013;BME280;10167;42.852;23.042;2022-08-11T04:17:47;95041.38;;;16.02;100.00
20013;BME280;10167;42.852;23.042;2022-08-11T04:20:48;95048.59;;;16.16;100.00
20013;BME280;10167;42.852;23.042;2022-08-11T04:28:41;95060.06;;;16.42;100.00
20013;BME280;10167;42.852;23.042;2022-08-11T04:31:34;95063.28;;;16.39;100.00
20013;BME280;10167;42.852;23.042;2022-08-11T04:34:56;95068.09;;;16.47;100.00
20013;BME280;10167;42.852;23.042;2022-08-11T04:37:46;95065.66;;;16.51;100.00
20013;BME280;10167;42.852;23.042;2022-08-11T04:40:48;95064.09;;;16.45;100.00
20013;BME280;10167;42.852;23.042;2022-08-11T04:43:44;95059.78;;;16.49;100.00
20013;BME280;10167;42.852;23.042;2022-08-11T04:54:56;95064.53;;;17.02;100.00
20013;BME280;10167;42.852;23.042;2022-08-11T04:57:58;95064.19;;;17.24;100.00
20013;BME280;10167;42.852;23.042;2022-08-11T05:01:17;95065.47;;;17.32;100.00
20013;BME280;10167;42.852;23.042;2022-08-11T05:12:30;95056.03;;;17.50;100.00
20013;BME280;10167;42.852;23.042;2022-08-11T05:15:02;95054.13;;;17.60;100.00
20013;BME280;10167;42.852;23.042;2022-08-11T05:17:56;95059.09;;;17.82;100.00
20013;BME280;10167;42.852;23.042;2022-08-11T05:20:49;95061.53;;;17.78;100.00
20013;BME280;10167;42.852;23.042;2022-08-11T05:23:39;95059.06;;;17.87;100.00
20013;BME280;10167;42.852;23.042;2022-08-11T05:26:26;95066.75;;;17.99;100.00
20013;BME280;10167;42.852;23.042;2022-08-11T05:34:52;95062.84;;;17.81;100.00
20013;BME280;10167;42.852;23.042;2022-08-11T05:37:24;95052.91;;;17.87;100.00
20013;BME280;10167;42.852;23.042;2022-08-11T05:40:04;95057.22;;;17.83;100.00
20013;BME280;10167;42.852;23.042;2022-08-11T05:42:55;95051.88;;;17.83;100.00
20013;BME280;10167;42.852;23.042;2022-08-11T05:45:42;95056.09;;;17.89;100.00
20013;BME280;10167;42.852;23.042;2022-08-11T05:48:33;95052.88;;;17.92;100.00
20013;BME280;10167;42.852;23.042;2022-08-11T05:54:15;95062.16;;;18.38;100.00
20013;BME280;10167;42.852;23.042;2022-08-11T05:57:03;95061.88;;;18.40;100.00
20013;BME280;10167;42.852;23.042;2022-08-11T05:59:31;95067.97;;;18.50;100.00
20013;BME280;10167;42.852;23.042;2022-08-11T06:02:01;95062.53;;;18.56;100.00
20013;BME280;10167;42.852;23.042;2022-08-11T06:04:30;95061.94;;;18.64;100.00
20013;BME280;10167;42.852;23.042;2022-08-11T06:07:00;95057.91;;;18.66;100.00
20013;BME280;10167;42.852;23.042;2022-08-11T06:09:31;95052.34;;;18.86;100.00
20013;BME280;10167;42.852;23.042;2022-08-11T06:12:19;95058.22;;;18.89;100.00
20013;BME280;10167;42.852;23.042;2022-08-11T06:14:50;95052.13;;;18.83;100.00
20013;BME280;10167;42.852;23.042;2022-08-11T06:17:22;95049.91;;;18.90;100.00
20013;BME280;10167;42.852;23.042;2022-08-11T06:19:58;95051.25;;;18.88;100.00
20013;BME280;10167;42.852;23.042;2022-08-11T06:22:33;95062.13;;;19.01;100.00
20013;BME280;10167;42.852;23.042;2022-08-11T06:25:02;95062.34;;;19.05;100.00
20013;BME280;10167;42.852;23.042;2022-08-11T06:27:35;95064.56;;;19.21;100.00
20013;BME280;10167;42.852;23.042;2022-08-11T06:32:52;95064.59;;;19.64;100.00
20013;BME280;10167;42.852;23.042;2022-08-11T06:35:32;95058.88;;;19.52;100.00
20013;BME280;10167;42.852;23.042;2022-08-11T06:38:08;95067.00;;;19.42;100.00
20013;BME280;10167;42.852;23.042;2022-08-11T06:40:42;95065.63;;;19.49;100.00
20013;BME280;10167;42.852;23.042;2022-08-11T06:43:46;95060.06;;;19.41;100.00
20013;BME280;10167;42.852;23.042;2022-08-11T06:46:27;95067.66;;;19.57;100.00
20013;BME280;10167;42.852;23.042;2022-08-11T06:51:55;95075.72;;;19.57;100.00
20013;BME280;10167;42.852;23.042;2022-08-11T06:54:29;95079.19;;;19.58;100.00
20013;BME280;10167;42.852;23.042;2022-08-11T06:56:59;95077.69;;;19.47;100.00
20013;BME280;10167;42.852;23.042;2022-08-11T07:00:04;95087.91;;;19.50;100.00
20013;BME280;10167;42.852;23.042;2022-08-11T07:02:52;95083.50;;;19.78;100.00
20013;BME280;10167;42.852;23.042;2022-08-11T07:05:24;95086.25;;;20.10;100.00
20013;BME280;10167;42.852;23.042;2022-08-11T07:14:37;95092.13;;;20.82;100.00
20013;BME280;10167;42.852;23.042;2022-08-11T07:21:15;95097.91;;;21.22;100.00
20013;BME280;10167;42.852;23.042;2022-08-11T07:24:26;95091.06;;;20.97;100.00
20013;BME280;10167;42.852;23.042;2022-08-11T07:27:35;95101.34;;;21.09;100.00
20013;BME280;10167;42.852;23.042;2022-08-11T07:30:23;95103.88;;;21.19;100.00
20013;BME280;10167;42.852;23.042;2022-08-11T07:38:00;95103.41;;;21.44;100.00
20013;BME280;10167;42.852;23.042;2022-08-11T07:40:32;95088.13;;;21.53;100.00
20013;BME280;10167;42.852;23.042;2022-08-11T07:43:00;95082.97;;;21.79;100.00
20013;BME280;10167;42.852;23.042;2022-08-11T07:45:30;95097.72;;;22.23;100.00
20013;BME280;10167;42.852;23.042;2022-08-11T07:48:17;95096.69;;;22.55;100.00
20013;BME280;10167;42.852;23.042;2022-08-11T07:51:04;95098.38;;;22.95;100.00
20013;BME280;10167;42.852;23.042;2022-08-11T07:53:51;95087.16;;;23.02;100.00
20013;BME280;10167;42.852;23.042;2022-08-11T07:56:34;95088.38;;;23.27;100.00
20013;BME280;10167;42.852;23.042;2022-08-11T07:59:17;95085.31;;;23.20;100.00
20013;BME280;10167;42.852;23.042;2022-08-11T08:02:23;95092.50;;;23.64;100.00
20013;BME280;10167;42.852;23.042;2022-08-11T08:05:09;95083.00;;;23.75;100.00
20013;BME280;10167;42.852;23.042;2022-08-11T08:07:55;95071.88;;;23.76;100.00
20013;BME280;10167;42.852;23.042;2022-08-11T08:10:43;95074.09;;;23.83;100.00
20013;BME280;10167;42.852;23.042;2022-08-11T08:13:31;95085.28;;;23.99;100.00
20013;BME280;10167;42.852;23.042;2022-08-11T08:21:34;95082.44;;;24.30;100.00
20013;BME280;10167;42.852;23.042;2022-08-11T08:24:02;95089.78;;;24.46;100.00
20013;BME280;10167;42.852;23.042;2022-08-11T08:26:30;95073.06;;;24.44;100.00
20013;BME280;10167;42.852;23.042;2022-08-11T08:29:19;95072.56;;;24.51;100.00
20013;BME280;10167;42.852;23.042;2022-08-11T08:32:06;95070.84;;;24.46;100.00
20013;BME280;10167;42.852;23.042;2022-08-11T08:34:34;95072.56;;;24.59;100.00
20013;BME280;10167;42.852;23.042;2022-08-11T08:37:04;95071.13;;;24.71;100.00
20013;BME280;10167;42.852;23.042;2022-08-11T08:45:02;95073.97;;;24.74;100.00
20013;BME280;10167;42.852;23.042;2022-08-11T08:47:35;95068.06;;;24.72;100.00
20013;BME280;10167;42.852;23.042;2022-08-11T08:50:11;95063.25;;;24.95;100.00
20013;BME280;10167;42.852;23.042;2022-08-11T08:52:48;95069.47;;;25.04;100.00
20013;BME280;10167;42.852;23.042;2022-08-11T08:55:18;95060.41;;;24.91;100.00
20013;BME280;10167;42.852;23.042;2022-08-11T08:57:48;95064.78;;;25.22;100.00
20013;BME280;10167;42.852;23.042;2022-08-11T09:00:19;95062.75;;;25.10;100.00
20013;BME280;10167;42.852;23.042;2022-08-11T09:05:28;95060.53;;;25.50;100.00
20013;BME280;10167;42.852;23.042;2022-08-11T09:07:56;95065.94;;;25.50;100.00
20013;BME280;10167;42.852;23.042;2022-08-11T09:10:24;95063.94;;;25.30;100.00
20013;BME280;10167;42.852;23.042;2022-08-11T09:12:53;95058.13;;;25.11;100.00
20013;BME280;10167;42.852;23.042;2022-08-11T09:15:22;95057.47;;;25.14;100.00
20013;BME280;10167;42.852;23.042;2022-08-11T09:17:53;95048.66;;;25.25;100.00
20013;BME280;10167;42.852;23.042;2022-08-11T09:20:33;95067.56;;;25.43;100.00
20013;BME280;10167;42.852;23.042;2022-08-11T09:28:10;95049.91;;;25.95;100.00
20013;BME280;10167;42.852;23.042;2022-08-11T09:30:40;95052.56;;;26.46;100.00
20013;BME280;10167;42.852;23.042;2022-08-11T09:33:10;95056.41;;;26.45;100.00
20013;BME280;10167;42.852;23.042;2022-08-11T09:35:39;95044.66;;;26.53;100.00
20013;BME280;10167;42.852;23.042;2022-08-11T09:38:11;95042.78;;;26.65;100.00
20013;BME280;10167;42.852;23.042;2022-08-11T09:40:58;95042.31;;;26.51;100.00
20013;BME280;10167;42.852;23.042;2022-08-11T09:43:29;95041.69;;;26.79;100.00
20013;BME280;10167;42.852;23.042;2022-08-11T09:46:36;95043.13;;;26.64;100.00
20013;BME280;10167;42.852;23.042;2022-08-11T09:49:07;95037.72;;;26.97;100.00
20013;BME280;10167;42.852;23.042;2022-08-11T09:51:35;95036.84;;;27.29;100.00
20013;BME280;10167;42.852;23.042;2022-08-11T09:54:07;95026.28;;;27.16;100.00
20013;BME280;10167;42.852;23.042;2022-08-11T09:56:35;95022.34;;;27.37;100.00
20013;BME280;10167;42.852;23.042;2022-08-11T09:59:35;95017.81;;;27.41;100.00
20013;BME280;10167;42.852;23.042;2022-08-11T10:05:25;95007.03;;;27.81;100.00
20013;BME280;10167;42.852;23.042;2022-08-11T10:08:11;95003.84;;;27.79;100.00
20013;BME280;10167;42.852;23.042;2022-08-11T10:10:40;95004.41;;;27.97;100.00
20013;BME280;10167;42.852;23.042;2022-08-11T10:13:10;95014.34;;;28.17;98.94
20013;BME280;10167;42.852;23.042;2022-08-11T10:16:02;95012.66;;;28.01;98.34
20013;BME280;10167;42.852;23.042;2022-08-11T10:18:47;95003.16;;;27.95;98.80
20013;BME280;10167;42.852;23.042;2022-08-11T10:21:25;95004.97;;;27.78;100.00
20013;BME280;10167;42.852;23.042;2022-08-11T10:25:21;95001.75;;;28.01;97.65
20013;BME280;10167;42.852;23.042;2022-08-11T10:28:08;94997.75;;;28.10;98.85
20013;BME280;10167;42.852;23.042;2022-08-11T10:30:57;95009.34;;;28.20;92.30
20013;BME280;10167;42.852;23.042;2022-08-11T10:33:44;94997.75;;;28.23;94.86
20013;BME280;10167;42.852;23.042;2022-08-11T10:36:30;95006.81;;;27.74;93.14
20013;BME280;10167;42.852;23.042;2022-08-11T10:38:59;95012.88;;;28.08;94.39
20013;BME280;10167;42.852;23.042;2022-08-11T10:46:51;95002.88;;;28.52;88.76
20013;BME280;10167;42.852;23.042;2022-08-11T10:49:37;94994.53;;;28.61;88.40
20013;BME280;10167;42.852;23.042;2022-08-11T10:52:06;94996.47;;;28.88;90.26
20013;BME280;10167;42.852;23.042;2022-08-11T10:54:52;94989.66;;;28.82;86.52
20013;BME280;10167;42.852;23.042;2022-08-11T10:57:38;94979.22;;;28.84;90.02
20013;BME280;10167;42.852;23.042;2022-08-11T11:00:32;94983.78;;;28.96;87.62
20013;BME280;10167;42.852;23.042;2022-08-11T11:08:09;94965.47;;;29.27;80.01
20013;BME280;10167;42.852;23.042;2022-08-11T11:10:58;94964.72;;;29.43;80.23
20013;BME280;10167;42.852;23.042;2022-08-11T11:13:28;94955.63;;;29.54;79.54
20013;BME280;10167;42.852;23.042;2022-08-11T11:16:22;94950.66;;;29.60;78.77
20013;BME280;10167;42.852;23.042;2022-08-11T11:19:09;94957.38;;;29.82;77.34
20013;BME280;10167;42.852;23.042;2022-08-11T11:21:39;94952.59;;;29.94;75.92
20013;BME280;10167;42.852;23.042;2022-08-11T11:29:56;94949.66;;;30.03;74.01
20013;BME280;10167;42.852;23.042;2022-08-11T11:32:36;94954.63;;;30.17;76.09
20013;BME280;10167;42.852;23.042;2022-08-11T11:35:22;94954.84;;;30.27;73.09
20013;BME280;10167;42.852;23.042;2022-08-11T11:37:52;94951.41;;;30.30;74.97
20013;BME280;10167;42.852;23.042;2022-08-11T11:40:32;94940.25;;;30.39;72.28
20013;BME280;10167;42.852;23.042;2022-08-11T11:43:00;94948.81;;;29.99;70.15
20013;BME280;10167;42.852;23.042;2022-08-11T11:50:35;94945.16;;;30.72;70.32
20013;BME280;10167;42.852;23.042;2022-08-11T11:53:04;94939.06;;;30.79;71.91
20013;BME280;10167;42.852;23.042;2022-08-11T11:55:33;94932.66;;;30.71;70.50
20013;BME280;10167;42.852;23.042;2022-08-11T11:58:03;94933.69;;;31.31;72.30
20013;BME280;10167;42.852;23.042;2022-08-11T12:00:51;94934.91;;;31.60;68.16
20013;BME280;10167;42.852;23.042;2022-08-11T12:03:38;94935.25;;;32.15;66.44
20013;BME280;10167;42.852;23.042;2022-08-11T12:09:04;94927.16;;;32.59;60.17
20013;BME280;10167;42.852;23.042;2022-08-11T12:11:32;94925.25;;;32.30;59.75
20013;BME280;10167;42.852;23.042;2022-08-11T12:14:19;94926.38;;;32.99;59.80
20013;BME280;10167;42.852;23.042;2022-08-11T12:16:48;94927.53;;;33.39;57.16
20013;BME280;10167;42.852;23.042;2022-08-11T12:19:17;94913.31;;;33.26;54.20
20013;BME280;10167;42.852;23.042;2022-08-11T12:21:47;94915.09;;;33.59;55.37
20013;BME280;10167;42.852;23.042;2022-08-11T12:27:17;94900.47;;;34.13;52.50
20013;BME280;10167;42.852;23.042;2022-08-11T12:29:55;94898.22;;;34.40;52.52
20013;BME280;10167;42.852;23.042;2022-08-11T12:32:25;94899.38;;;34.36;51.16
20013;BME280;10167;42.852;23.042;2022-08-11T12:34:54;94902.16;;;34.46;50.00
20013;BME280;10167;42.852;23.042;2022-08-11T12:37:27;94897.56;;;34.97;51.56
20013;BME280;10167;42.852;23.042;2022-08-11T12:39:59;94884.97;;;35.10;48.27
20013;BME280;10167;42.852;23.042;2022-08-11T12:48:31;94890.47;;;35.03;42.28
20013;BME280;10167;42.852;23.042;2022-08-11T12:51:31;94887.69;;;35.66;43.31
20013;BME280;10167;42.852;23.042;2022-08-11T12:54:43;94890.81;;;35.79;42.19
20013;BME280;10167;42.852;23.042;2022-08-11T12:57:14;94880.06;;;36.10;40.02
20013;BME280;10167;42.852;23.042;2022-08-11T13:00:05;94867.09;;;36.07;38.56
20013;BME280;10167;42.852;23.042;2022-08-11T13:02:51;94880.00;;;36.27;39.31
20013;BME280;10167;42.852;23.042;2022-08-11T13:10:37;94874.03;;;37.02;37.01
20013;BME280;10167;42.852;23.042;2022-08-11T13:13:35;94871.59;;;36.56;35.05
20013;BME280;10167;42.852;23.042;2022-08-11T13:16:25;94865.84;;;36.18;36.03
20013;BME280;10167;42.852;23.042;2022-08-11T13:18:55;94876.66;;;35.66;35.23
20013;BME280;10167;42.852;23.042;2022-08-11T13:21:25;94872.53;;;36.24;35.14
20013;BME280;10167;42.852;23.042;2022-08-11T13:23:53;94861.22;;;35.94;33.78
20013;BME280;10167;42.852;23.042;2022-08-11T13:29:26;94860.97;;;36.47;35.33
20013;BME280;10167;42.852;23.042;2022-08-11T13:31:56;94864.91;;;36.46;34.11
20013;BME280;10167;42.852;23.042;2022-08-11T13:34:27;94864.91;;;36.50;32.02
20013;BME280;10167;42.852;23.042;2022-08-11T13:36:58;94863.94;;;36.81;31.67
20013;BME280;10167;42.852;23.042;2022-08-11T13:39:28;94861.44;;;36.97;33.17
20013;BME280;10167;42.852;23.042;2022-08-11T13:41:58;94856.84;;;37.28;32.59
20013;BME280;10167;42.852;23.042;2022-08-11T13:44:29;94855.16;;;37.41;32.08
20013;BME280;10167;42.852;23.042;2022-08-11T13:51:57;94845.44;;;36.09;32.93
20013;BME280;10167;42.852;23.042;2022-08-11T13:54:27;94857.16;;;36.27;32.87
20013;BME280;10167;42.852;23.042;2022-08-11T13:57:00;94860.72;;;36.17;31.13
20013;BME280;10167;42.852;23.042;2022-08-11T13:59:28;94859.31;;;36.60;31.18
20013;BME280;10167;42.852;23.042;2022-08-11T14:02:00;94852.09;;;36.81;31.55
20013;BME280;10167;42.852;23.042;2022-08-11T14:04:53;94849.41;;;36.00;32.39
20013;BME280;10167;42.852;23.042;2022-08-11T14:07:24;94850.34;;;35.34;34.17
20013;BME280;10167;42.852;23.042;2022-08-11T14:12:40;94838.38;;;33.95;36.77
20013;BME280;10167;42.852;23.042;2022-08-11T14:15:31;94842.38;;;33.35;40.59
20013;BME280;10167;42.852;23.042;2022-08-11T14:18:02;94846.28;;;32.79;41.18
20013;BME280;10167;42.852;23.042;2022-08-11T14:20:33;94847.97;;;32.51;43.37
20013;BME280;10167;42.852;23.042;2022-08-11T14:23:17;94846.50;;;32.60;54.27
20013;BME280;10167;42.852;23.042;2022-08-11T14:25:46;94839.47;;;31.89;56.43
20013;BME280;10167;42.852;23.042;2022-08-11T14:31:45;94838.78;;;30.41;59.31
20013;BME280;10167;42.852;23.042;2022-08-11T14:34:14;94837.63;;;30.19;58.31
20013;BME280;10167;42.852;23.042;2022-08-11T14:36:46;94839.56;;;29.80;60.27
20013;BME280;10167;42.852;23.042;2022-08-11T14:39:20;94845.69;;;29.54;61.16
20013;BME280;10167;42.852;23.042;2022-08-11T14:41:53;94833.84;;;29.66;59.96
20013;BME280;10167;42.852;23.042;2022-08-11T14:44:42;94831.75;;;29.59;60.07
20013;BME280;10167;42.852;23.042;2022-08-11T14:50:13;94837.16;;;29.20;61.39
20013;BME280;10167;42.852;23.042;2022-08-11T14:52:48;94834.47;;;29.24;61.33
20013;BME280;10167;42.852;23.042;2022-08-11T14:55:17;94836.56;;;29.11;60.84
20013;BME280;10167;42.852;23.042;2022-08-11T14:58:04;94829.63;;;28.98;60.44
20013;BME280;10167;42.852;23.042;2022-08-11T15:00:35;94829.66;;;28.82;61.78
20013;BME280;10167;42.852;23.042;2022-08-11T15:03:04;94832.72;;;28.49;62.26
20013;BME280;10167;42.852;23.042;2022-08-11T15:12:06;94834.84;;;27.97;64.68
20013;BME280;10167;42.852;23.042;2022-08-11T15:15:00;94833.91;;;27.77;64.46
20013;BME280;10167;42.852;23.042;2022-08-11T15:17:46;94832.28;;;27.60;64.56
20013;BME280;10167;42.852;23.042;2022-08-11T15:20:17;94826.50;;;27.50;65.65
20013;BME280;10167;42.852;23.042;2022-08-11T15:23:04;94833.59;;;27.26;64.93
20013;BME280;10167;42.852;23.042;2022-08-11T15:25:54;94835.53;;;27.26;65.65
20013;BME280;10167;42.852;23.042;2022-08-11T15:33:46;94814.88;;;26.97;66.91
20013;BME280;10167;42.852;23.042;2022-08-11T15:36:36;94819.84;;;26.70;66.92
20013;BME280;10167;42.852;23.042;2022-08-11T15:39:26;94817.78;;;26.55;67.46
20013;BME280;10167;42.852;23.042;2022-08-11T15:41:56;94820.16;;;26.32;67.56
20013;BME280;10167;42.852;23.042;2022-08-11T15:44:49;94820.38;;;26.27;70.54
20013;BME280;10167;42.852;23.042;2022-08-11T15:47:39;94820.84;;;26.29;69.78
20013;BME280;10167;42.852;23.042;2022-08-11T15:53:10;94817.63;;;26.15;70.42
20013;BME280;10167;42.852;23.042;2022-08-11T15:55:38;94824.03;;;26.11;70.29
20013;BME280;10167;42.852;23.042;2022-08-11T15:58:08;94820.88;;;26.09;71.69
20013;BME280;10167;42.852;23.042;2022-08-11T16:00:56;94822.78;;;26.08;69.77
20013;BME280;10167;42.852;23.042;2022-08-11T16:03:48;94824.47;;;26.00;70.45
20013;BME280;10167;42.852;23.042;2022-08-11T16:06:42;94821.75;;;26.00;71.40
20013;BME280;10167;42.852;23.042;2022-08-11T16:12:07;94824.59;;;26.04;69.27
20013;BME280;10167;42.852;23.042;2022-08-11T16:14:40;94828.66;;;25.98;69.72
20013;BME280;10167;42.852;23.042;2022-08-11T16:17:32;94832.34;;;25.81;70.98
20013;BME280;10167;42.852;23.042;2022-08-11T16:20:02;94822.47;;;25.77;72.21
20013;BME280;10167;42.852;23.042;2022-08-11T16:22:32;94818.59;;;25.65;73.56
20013;BME280;10167;42.852;23.042;2022-08-11T16:25:08;94821.00;;;25.67;75.72
20013;BME280;10167;42.852;23.042;2022-08-11T16:33:15;94827.34;;;25.50;76.84
20013;BME280;10167;42.852;23.042;2022-08-11T16:36:05;94828.66;;;25.44;75.77
20013;BME280;10167;42.852;23.042;2022-08-11T16:38:52;94825.69;;;25.37;77.04
20013;BME280;10167;42.852;23.042;2022-08-11T16:41:23;94835.47;;;25.29;78.08
20013;BME280;10167;42.852;23.042;2022-08-11T16:44:11;94838.38;;;25.24;78.14
20013;BME280;10167;42.852;23.042;2022-08-11T16:47:05;94829.66;;;25.19;78.80
20013;BME280;10167;42.852;23.042;2022-08-11T16:54:38;94840.00;;;24.96;78.57
20013;BME280;10167;42.852;23.042;2022-08-11T16:57:14;94842.41;;;24.89;78.87
20013;BME280;10167;42.852;23.042;2022-08-11T17:00:03;94844.78;;;24.99;78.19
20013;BME280;10167;42.852;23.042;2022-08-11T17:02:35;94841.31;;;24.90;77.63
20013;BME280;10167;42.852;23.042;2022-08-11T17:05:23;94852.03;;;24.78;78.18
20013;BME280;10167;42.852;23.042;2022-08-11T17:08:25;94848.78;;;24.64;78.42
20013;BME280;10167;42.852;23.042;2022-08-11T17:14:12;94861.44;;;24.42;81.93
20013;BME280;10167;42.852;23.042;2022-08-11T17:16:41;94862.25;;;24.43;82.80
20013;BME280;10167;42.852;23.042;2022-08-11T17:19:13;94863.50;;;24.45;84.11
20013;BME280;10167;42.852;23.042;2022-08-11T17:21:45;94863.44;;;24.24;85.95
20013;BME280;10167;42.852;23.042;2022-08-11T17:24:29;94861.97;;;24.18;86.10
20013;BME280;10167;42.852;23.042;2022-08-11T17:26:58;94867.06;;;24.20;85.22
20013;BME280;10167;42.852;23.042;2022-08-11T17:33:07;94873.66;;;23.93;87.34
20013;BME280;10167;42.852;23.042;2022-08-11T17:35:53;94880.19;;;23.92;87.37
20013;BME280;10167;42.852;23.042;2022-08-11T17:38:21;94883.06;;;23.87;86.94
20013;BME280;10167;42.852;23.042;2022-08-11T17:40:52;94882.09;;;23.92;86.75
20013;BME280;10167;42.852;23.042;2022-08-11T17:43:50;94891.97;;;23.87;87.35
20013;BME280;10167;42.852;23.042;2022-08-11T17:46:38;94890.19;;;24.00;87.56
20013;BME280;10167;42.852;23.042;2022-08-11T17:54:37;94898.63;;;23.99;88.47
20013;BME280;10167;42.852;23.042;2022-08-11T17:57:24;94905.28;;;24.10;89.41
20013;BME280;10167;42.852;23.042;2022-08-11T18:00:14;94906.44;;;24.00;88.74
20013;BME280;10167;42.852;23.042;2022-08-11T18:02:43;94906.25;;;24.05;88.81
20013;BME280;10167;42.852;23.042;2022-08-11T18:05:32;94907.34;;;24.04;90.06
20013;BME280;10167;42.852;23.042;2022-08-11T18:08:04;94910.38;;;24.11;87.08
20013;BME280;10167;42.852;23.042;2022-08-11T18:10:53;94915.00;;;24.11;87.74